Haypoint, Minnesota
Current Conditions -  °F | °C
As of 2:55 PM on Friday 19 Dec 2014 (Local Time) from KGPZ Reporting Station
Overcast Overcast  
Wind Chill: 12°   Ceiling: 1000
Heat Index: 23°   Visibility: 5mi
Dew Point: 19°   Wind: 10mph
Humidity: 86%   Direction: 130°SE
Pressure: 30.11"   Gusts: NA
Location:  47.0392°N, 93.6273°W
Report Text: KGPZ 192055Z AUTO 13009KT 5SM OVC010 M05/M07 A3011 RMK AO1 57010
Loading
Personal Weather Stations






























Interactive Weather Map New forecast layout! Learn more

10-Day Weather Forecast

Advertisements
Track Severe Weather on mobile